Ash Grove, MO (65604)

6:04 AM CST on December 11, 2016 (GMT -0600)
| | Change Station

Elev -9999 ft 0.00 °N, 0.00 °E | Updated 2 minutes ago

Overcast
Overcast
70 °F
Feels Like 70 °F
N
12
Wind Variable Wind from SSE
Gusts 19 mph

Today
High -- | Low -- °F
--% Chance of Precip.
Yesterday
High -- | Low -- °F
Precip. -- in
Pressure 29.88 in
Visibility 10.0 miles
Clouds Overcast 2900 ft
Dew Point 65 °F
Humidity 86%
Rainfall --
Snow Depth Not available.
7:18 AM 4:57 PM
Waxing Gibbous, 91% visible
METAR KSGF 111152Z 16010KT 10SM OVC029 07/M03 A2987 RMK AO2 SLP119 T00671028 10067 20033 56028
Pressure 29.88 in
Visibility 10.0 miles
Clouds Overcast 2900 ft
Dew Point 65 °F
Humidity 86%
Rainfall --
Snow Depth Not available.
7:18 AM 4:57 PM
Waxing Gibbous, 91% visible
METAR KSGF 111152Z 16010KT 10SM OVC029 07/M03 A2987 RMK AO2 SLP119 T00671028 10067 20033 56028

10-Day Weather Forecast

Almanac

Astronomy

Dec. 11, 2016 Rise Set
Actual Time
Civil Twilight
Nautical Twilight
Astronomical Twilight
Moon
Length of Visible Light
Length of Day
Tomorrow will be .
, % of the Moon is Illuminated

Today's Extremes

State Highs State Lows

Community

WunderPhotos

Upload Photos

1,956,710 photos uploaded!

WunderBlog® & News

Nearby

Air Quality

  Air Quality AQ Index Pollutant
Not available.

Snow Depth

Station Depth Elevation

Earthquake Activity

City Distance Mag. Time & Date
Minimum magnitude displayed is 2.5.

Coastal Water Temperatures

Place Temperature

Stations

Nearby Weather Stations

Station Location Temp. Windchill Dew Point Humidity Wind Precip. Elev Updated Type
                   

Watches & Warnings

There are currently no watches in effect.